Time;durP1;ratioP1;P1;durP2;ratioP2;P2;SDS_P1;SDS_P2;PMS_P1;PMS_P2;Temp;Humidity;BMP_temperature;BMP_pressure;BME280_temperature;BME280_humidity;BME280_pressure;Samples;Min_cycle;Max_cycle;Signal;HPM_P1;HPM_P2
2024/01/13 00:00:34;;;;;;;1502.88;999.90;;;26.10;99.90;;;;;;5017361;28;20018;-65
2024/01/13 00:03:00;;;;;;;1495.57;999.90;;;26.10;99.90;;;;;;5017254;28;20156;-65
2024/01/13 00:05:27;;;;;;;1506.20;999.90;;;26.10;99.90;;;;;;5017045;28;20041;-65
2024/01/13 00:07:55;;;;;;;1500.53;999.90;;;26.00;99.90;;;;;;5016383;28;20113;-65
2024/01/13 00:10:21;;;;;;;1509.00;999.90;;;26.00;99.90;;;;;;5006061;28;20509;-65
2024/01/13 00:12:48;;;;;;;1505.72;999.90;;;26.00;99.90;;;;;;5017167;28;20384;-65
2024/01/13 00:15:15;;;;;;;1509.00;999.90;;;26.00;99.90;;;;;;5017035;28;20018;-65
2024/01/13 00:17:41;;;;;;;1499.50;999.90;;;26.00;99.90;;;;;;5016887;28;20018;-65
2024/01/13 00:20:08;;;;;;;1502.25;999.90;;;26.00;99.90;;;;;;5016882;28;20391;-65
2024/01/13 00:22:35;;;;;;;1506.75;999.90;;;26.00;99.90;;;;;;5016923;28;20029;-65
2024/01/13 00:25:01;;;;;;;1506.10;999.90;;;26.00;99.90;;;;;;5016878;28;20060;-66
2024/01/13 00:27:28;;;;;;;1498.22;999.90;;;26.00;99.90;;;;;;5010751;28;20034;-65
2024/01/13 00:29:54;;;;;;;1503.95;999.90;;;26.00;99.90;;;;;;5016576;28;20030;-65
2024/01/13 00:32:21;;;;;;;1507.68;999.90;;;26.00;99.90;;;;;;5016209;28;20038;-65
2024/01/13 00:34:47;;;;;;;1510.72;999.90;;;26.00;99.90;;;;;;5013067;28;20026;-65
2024/01/13 00:37:14;;;;;;;1507.45;999.90;;;26.10;99.90;;;;;;5020148;28;20030;-64
2024/01/13 00:39:40;;;;;;;1499.70;999.90;;;26.10;99.90;;;;;;5026218;28;20017;-63
2024/01/13 00:42:07;;;;;;;1499.18;999.90;;;26.10;99.90;;;;;;5026832;28;20030;-65
2024/01/13 00:44:33;;;;;;;1497.85;999.90;;;26.10;99.90;;;;;;5022317;28;20513;-65
2024/01/13 00:47:00;;;;;;;1503.43;999.90;;;26.10;99.90;;;;;;5025819;28;20026;-64
2024/01/13 00:49:26;;;;;;;1502.40;999.90;;;26.20;99.90;;;;;;5025317;28;20522;-65
2024/01/13 00:51:57;;;;;;;1476.20;999.90;;;26.10;99.90;;;;;;5021010;28;20057;-67
2024/01/13 00:54:23;;;;;;;1502.93;999.90;;;26.10;99.90;;;;;;5025960;28;20036;-66
2024/01/13 00:56:50;;;;;;;1494.65;999.90;;;26.20;99.90;;;;;;5024252;28;20430;-65
2024/01/13 00:59:16;;;;;;;1494.00;999.90;;;26.20;99.90;;;;;;5024446;28;20474;-67
2024/01/13 01:01:43;;;;;;;1418.22;999.90;;;26.30;99.90;;;;;;5024621;28;20486;-68
2024/01/13 01:04:09;;;;;;;649.90;588.28;;;26.30;99.90;;;;;;5023656;28;20022;-67
2024/01/13 01:06:36;;;;;;;845.50;766.90;;;26.30;99.90;;;;;;5024262;28;20049;-68
2024/01/13 01:09:02;;;;;;;979.20;885.97;;;26.40;99.90;;;;;;5025747;28;20116;-66
2024/01/13 01:11:29;;;;;;;1072.97;972.00;;;26.40;99.90;;;;;;5024337;28;20022;-67
2024/01/13 01:13:56;;;;;;;987.28;893.40;;;26.40;99.90;;;;;;5026071;28;20096;-67
2024/01/13 01:16:22;;;;;;;955.88;865.33;;;26.40;99.90;;;;;;5025688;28;20039;-65
2024/01/13 01:18:49;;;;;;;955.65;865.00;;;26.40;99.90;;;;;;5024391;28;20231;-67
2024/01/13 01:21:16;;;;;;;945.58;855.35;;;26.40;99.90;;;;;;5022276;28;20025;-69
2024/01/13 01:23:42;;;;;;;929.47;840.22;;;26.40;99.90;;;;;;5025109;28;20475;-67
2024/01/13 01:26:09;;;;;;;989.40;895.13;;;26.40;99.90;;;;;;5026329;28;20029;-66
2024/01/13 01:28:35;;;;;;;1016.30;920.00;;;26.40;99.90;;;;;;5017634;28;20018;-68
2024/01/13 01:31:03;;;;;;;1020.38;925.08;;;26.40;99.90;;;;;;5025390;28;20022;-68
2024/01/13 01:33:29;;;;;;;1025.60;929.08;;;26.50;99.90;;;;;;5004403;28;20044;-69
2024/01/13 01:35:56;;;;;;;1100.43;997.35;;;26.50;99.90;;;;;;5026186;28;20036;-64
2024/01/13 01:38:22;;;;;;;1068.78;968.13;;;26.50;99.90;;;;;;5025175;28;20032;-69
2024/01/13 01:40:54;;;;;;;1019.40;920.88;;;26.50;99.90;;;;;;5025968;28;20071;-70
2024/01/13 01:43:21;;;;;;;1047.82;947.63;;;26.60;99.90;;;;;;5022534;28;20071;-68
2024/01/13 01:45:50;;;;;;;1114.15;999.90;;;26.60;99.90;;;;;;5025531;28;20026;-67
2024/01/13 01:48:17;;;;;;;1066.07;964.88;;;26.60;99.90;;;;;;5020464;28;20053;-68
2024/01/13 01:50:45;;;;;;;1160.97;999.90;;;26.60;99.90;;;;;;5024305;28;20029;-67
2024/01/13 01:53:11;;;;;;;1131.55;999.90;;;26.60;99.90;;;;;;5025405;28;20621;-68
2024/01/13 01:55:38;;;;;;;1181.47;999.90;;;26.60;99.90;;;;;;5024271;28;20105;-63
2024/01/13 01:58:05;;;;;;;1151.25;999.90;;;26.70;99.90;;;;;;5024101;28;20021;-62
2024/01/13 02:00:33;;;;;;;1194.40;999.90;;;26.80;99.90;;;;;;5025391;28;20032;-61
2024/01/13 02:02:59;;;;;;;1177.38;999.90;;;26.80;99.90;;;;;;5022911;28;20025;-62
2024/01/13 02:05:26;;;;;;;1203.95;999.90;;;26.80;99.90;;;;;;5021594;28;20032;-62
2024/01/13 02:07:53;;;;;;;1287.30;999.90;;;26.80;99.90;;;;;;5023905;28;20026;-61
2024/01/13 02:10:20;;;;;;;1302.32;999.90;;;26.90;99.90;;;;;;5025065;28;20033;-66
2024/01/13 02:12:47;;;;;;;1080.53;977.90;;;26.90;99.90;;;;;;5024910;28;20026;-62
2024/01/13 02:15:14;;;;;;;1084.03;980.92;;;27.00;99.90;;;;;;5023204;28;20014;-63
2024/01/13 02:17:40;;;;;;;1200.80;999.90;;;26.90;99.90;;;;;;5025881;28;20029;-62
2024/01/13 02:20:09;;;;;;;1274.30;999.90;;;26.90;99.90;;;;;;5023295;28;20101;-63
2024/01/13 02:22:35;;;;;;;1218.03;999.90;;;26.90;99.90;;;;;;5022230;28;20036;-64
2024/01/13 02:25:04;;;;;;;1316.15;999.90;;;26.90;99.90;;;;;;5025687;28;20401;-64
2024/01/13 02:27:31;;;;;;;1324.93;999.90;;;27.00;99.90;;;;;;5024951;28;20025;-67
2024/01/13 02:29:58;;;;;;;1291.72;999.90;;;26.90;99.90;;;;;;5024695;28;20024;-67
2024/01/13 02:32:24;;;;;;;1260.00;999.90;;;27.00;99.90;;;;;;5048287;23;20057;-65
2024/01/13 02:34:51;;;;;;;1075.10;971.25;;;27.00;99.90;;;;;;5035131;28;20028;-66
2024/01/13 02:37:17;;;;;;;1062.22;962.08;;;27.10;99.90;;;;;;5034678;28;20410;-66
2024/01/13 02:39:46;;;;;;;1027.93;929.65;;;27.10;99.90;;;;;;5034717;28;20138;-67
2024/01/13 02:42:12;;;;;;;1098.00;993.35;;;27.20;99.90;;;;;;5034307;28;20018;-66
2024/01/13 02:44:39;;;;;;;1025.50;927.72;;;27.20;99.90;;;;;;5034161;28;20057;-66
2024/01/13 02:47:05;;;;;;;1076.35;974.22;;;27.20;99.90;;;;;;5034093;28;20059;-67
2024/01/13 02:49:32;;;;;;;1096.93;993.33;;;27.30;99.90;;;;;;5034235;28;20071;-66
2024/01/13 02:51:58;;;;;;;1076.78;974.80;;;27.30;99.90;;;;;;5034262;28;20025;-67
2024/01/13 02:54:25;;;;;;;1072.88;970.15;;;27.30;99.90;;;;;;5031687;28;20064;-66
2024/01/13 02:56:51;;;;;;;1132.55;999.90;;;27.30;99.90;;;;;;5004119;28;20478;-65
2024/01/13 02:59:18;;;;;;;1121.45;999.90;;;27.40;99.90;;;;;;5006637;28;20495;-66
2024/01/13 03:01:44;;;;;;;1138.68;999.90;;;27.50;99.90;;;;;;5011475;28;20022;-65
2024/01/13 03:04:11;;;;;;;1140.68;999.90;;;27.50;99.90;;;;;;5014187;28;20030;-66
2024/01/13 03:06:37;;;;;;;1135.53;999.90;;;27.60;99.90;;;;;;5013895;28;20125;-66
2024/01/13 03:09:04;;;;;;;1142.07;999.90;;;27.70;99.90;;;;;;5013286;28;20104;-66
2024/01/13 03:11:30;;;;;;;1058.50;956.72;;;27.70;99.90;;;;;;5014128;28;20118;-67
2024/01/13 03:13:58;;;;;;;1088.20;986.05;;;27.70;99.90;;;;;;5013862;28;20030;-66
2024/01/13 03:16:24;;;;;;;1086.20;982.47;;;27.70;99.90;;;;;;5013481;28;20034;-68
2024/01/13 03:18:51;;;;;;;1122.35;999.90;;;27.80;99.90;;;;;;5014308;28;20119;-68
2024/01/13 03:21:17;;;;;;;1107.15;999.90;;;27.80;99.90;;;;;;5012590;28;20030;-68
2024/01/13 03:23:44;;;;;;;1067.85;964.83;;;27.80;99.90;;;;;;5013824;28;20050;-67
2024/01/13 03:26:10;;;;;;;1126.38;999.90;;;27.80;99.90;;;;;;5013662;28;20390;-68
2024/01/13 03:28:37;;;;;;;1118.63;999.90;;;27.90;99.90;;;;;;5008726;28;20387;-67
2024/01/13 03:31:04;;;;;;;1101.18;997.17;;;27.90;99.90;;;;;;5006178;28;20057;-69
2024/01/13 03:33:30;;;;;;;1081.70;977.67;;;27.90;99.90;;;;;;5012319;28;20380;-67
2024/01/13 03:35:57;;;;;;;1095.20;990.72;;;27.90;99.90;;;;;;5013335;28;20037;-66
2024/01/13 03:38:25;;;;;;;1072.10;970.85;;;28.00;99.90;;;;;;5013604;28;20420;-66
2024/01/13 03:40:51;;;;;;;1035.55;936.10;;;28.00;99.90;;;;;;5013799;28;20022;-66
2024/01/13 03:43:18;;;;;;;1003.33;907.92;;;28.10;99.90;;;;;;5013608;28;20426;-66
2024/01/13 03:45:44;;;;;;;963.40;872.65;;;28.20;99.90;;;;;;5013461;28;20030;-67
2024/01/13 03:48:11;;;;;;;1105.55;999.60;;;28.20;99.90;;;;;;5013550;28;20022;-67
2024/01/13 03:50:37;;;;;;;1096.78;992.13;;;28.30;99.90;;;;;;5013355;28;20479;-67
2024/01/13 03:53:04;;;;;;;1142.07;999.90;;;28.30;99.90;;;;;;5013245;28;20052;-67
2024/01/13 03:55:30;;;;;;;983.97;890.08;;;28.30;99.90;;;;;;5013337;28;20050;-67
2024/01/13 03:57:57;;;;;;;970.00;878.17;;;28.40;99.90;;;;;;5013510;28;20033;-67
2024/01/13 04:00:23;;;;;;;894.55;810.63;;;28.40;99.90;;;;;;5013314;28;20022;-67
2024/01/13 04:02:50;;;;;;;857.22;776.60;;;28.50;99.90;;;;;;5013251;28;20026;-69
2024/01/13 04:05:16;;;;;;;863.20;781.95;;;28.50;99.90;;;;;;5013676;28;20072;-69
2024/01/13 04:07:43;;;;;;;622.03;562.60;;;28.50;99.90;;;;;;5004337;28;20092;-70
2024/01/13 04:10:10;;;;;;;681.92;618.17;;;28.60;99.90;;;;;;5002622;28;20030;-70
2024/01/13 04:12:36;;;;;;;672.95;609.53;;;28.60;99.90;;;;;;5006834;28;20027;-70
2024/01/13 04:15:03;;;;;;;663.63;600.70;;;28.60;99.90;;;;;;5005739;28;20456;-69
2024/01/13 04:17:29;;;;;;;665.67;602.83;;;28.60;99.90;;;;;;5006945;28;20459;-67
2024/01/13 04:19:56;;;;;;;718.90;650.95;;;28.70;99.90;;;;;;5007393;28;20019;-68
2024/01/13 04:22:22;;;;;;;745.22;676.22;;;28.70;99.90;;;;;;5006355;28;20463;-68
2024/01/13 04:24:49;;;;;;;713.65;646.92;;;28.80;99.90;;;;;;5003531;28;20072;-67
2024/01/13 04:27:15;;;;;;;785.45;711.83;;;28.70;99.90;;;;;;5035084;23;20050;-67
2024/01/13 04:29:42;;;;;;;1089.50;986.08;;;28.70;99.90;;;;;;5036476;28;20026;-69
2024/01/13 04:32:08;;;;;;;1084.07;980.85;;;28.80;99.90;;;;;;5037376;28;20022;-67
2024/01/13 04:34:35;;;;;;;1131.25;999.90;;;28.80;99.90;;;;;;5037116;28;20018;-68
2024/01/13 04:37:03;;;;;;;1035.97;937.33;;;28.80;99.90;;;;;;5036177;28;20025;-67
2024/01/13 04:39:29;;;;;;;1019.90;921.92;;;28.90;99.90;;;;;;5036171;28;20025;-67
2024/01/13 04:41:56;;;;;;;1025.53;927.63;;;29.00;99.90;;;;;;5036216;28;20033;-69
2024/01/13 04:44:22;;;;;;;1188.70;999.90;;;29.00;99.90;;;;;;5036301;28;20034;-68
2024/01/13 04:46:49;;;;;;;1212.63;999.90;;;29.10;99.90;;;;;;5036151;28;20029;-69
2024/01/13 04:49:16;;;;;;;1241.45;999.90;;;29.00;99.90;;;;;;5036202;28;20025;-68
2024/01/13 04:51:42;;;;;;;1271.10;999.90;;;29.00;99.90;;;;;;5036052;28;20025;-67
2024/01/13 04:54:11;;;;;;;1014.45;917.72;;;29.00;99.90;;;;;;5035852;28;20030;-69
2024/01/13 04:56:37;;;;;;;973.55;880.90;;;29.10;99.90;;;;;;5035745;28;20029;-68
2024/01/13 04:59:04;;;;;;;1056.50;962.90;;;29.20;99.90;;;;;;5035843;28;20036;-68
2024/01/13 05:01:30;;;;;;;974.10;881.28;;;29.30;99.90;;;;;;5019742;28;20091;-69
2024/01/13 05:03:57;;;;;;;979.05;885.85;;;29.40;99.90;;;;;;5015973;28;20026;-71
2024/01/13 05:06:24;;;;;;;974.13;881.25;;;29.40;99.90;;;;;;5016040;28;20471;-71
2024/01/13 05:08:50;;;;;;;938.15;848.88;;;29.40;99.90;;;;;;5015751;28;20096;-70
2024/01/13 05:11:19;;;;;;;961.97;870.08;;;29.40;99.90;;;;;;5015851;28;20014;-69
2024/01/13 05:13:45;;;;;;;931.05;842.47;;;29.40;99.90;;;;;;5015881;28;20048;-70
2024/01/13 05:16:12;;;;;;;918.70;831.05;;;29.40;99.90;;;;;;5015681;28;20076;-68
2024/01/13 05:18:38;;;;;;;953.03;862.83;;;29.50;99.90;;;;;;5016035;28;20032;-68
2024/01/13 05:21:05;;;;;;;920.35;833.08;;;29.50;99.90;;;;;;5015645;28;20080;-68
2024/01/13 05:23:32;;;;;;;953.30;866.70;;;29.40;99.90;;;;;;5015474;28;20030;-70
2024/01/13 05:25:58;;;;;;;892.90;809.28;;;29.40;99.90;;;;;;5015732;28;20026;-68
2024/01/13 05:28:25;;;;;;;965.00;877.65;;;29.40;99.90;;;;;;5021745;28;20454;-72
2024/01/13 05:30:51;;;;;;;940.05;851.13;;;29.50;99.90;;;;;;5035135;28;20089;-65
2024/01/13 05:33:18;;;;;;;919.17;831.97;;;29.50;99.90;;;;;;5034811;28;20553;-66
2024/01/13 05:35:44;;;;;;;898.28;813.13;;;29.50;99.90;;;;;;5022332;28;20040;-66
2024/01/13 05:38:11;;;;;;;843.15;763.92;;;29.60;99.90;;;;;;5035058;28;20029;-66
2024/01/13 05:40:41;;;;;;;878.92;795.40;;;29.50;99.90;;;;;;5034832;28;20033;-66
2024/01/13 05:43:07;;;;;;;886.33;801.95;;;29.60;99.90;;;;;;5035415;28;20108;-67
2024/01/13 05:45:34;;;;;;;886.55;802.53;;;29.60;99.90;;;;;;5035094;28;20151;-66
2024/01/13 05:48:01;;;;;;;840.88;761.65;;;29.70;99.90;;;;;;5032727;28;20039;-67
2024/01/13 05:50:27;;;;;;;886.22;802.80;;;29.70;99.90;;;;;;5030832;28;20052;-66
2024/01/13 05:52:54;;;;;;;914.90;831.90;;;29.80;99.90;;;;;;5029757;28;20029;-67
2024/01/13 05:55:21;;;;;;;871.33;790.20;;;29.90;99.90;;;;;;5034772;28;20020;-67
2024/01/13 05:57:48;;;;;;;832.38;754.03;;;29.90;99.90;;;;;;5034876;28;20021;-69
2024/01/13 06:00:15;;;;;;;873.95;794.35;;;29.80;99.90;;;;;;5034745;28;20028;-68
2024/01/13 06:02:43;;;;;;;834.85;756.65;;;29.80;99.90;;;;;;5034611;28;20030;-68
2024/01/13 06:05:10;;;;;;;887.55;803.28;;;29.80;99.90;;;;;;5034786;28;20033;-70
2024/01/13 06:07:37;;;;;;;978.15;886.35;;;29.80;99.90;;;;;;5034667;28;20021;-66
2024/01/13 06:10:04;;;;;;;943.53;854.10;;;29.70;99.90;;;;;;5034439;28;20036;-66
2024/01/13 06:12:31;;;;;;;969.78;878.17;;;29.70;99.90;;;;;;5034364;28;20034;-66
2024/01/13 06:14:57;;;;;;;1004.13;914.42;;;29.70;99.90;;;;;;5034321;28;20481;-67
2024/01/13 06:17:24;;;;;;;1022.83;931.20;;;29.60;99.90;;;;;;5034367;28;20017;-66
2024/01/13 06:19:50;;;;;;;820.65;742.90;;;29.70;99.90;;;;;;5034325;28;20032;-68
2024/01/13 06:22:17;;;;;;;807.70;731.45;;;29.60;99.90;;;;;;5034042;28;20022;-69
2024/01/13 06:24:43;;;;;;;830.83;753.03;;;29.60;99.90;;;;;;5020751;28;20022;-69
2024/01/13 06:27:10;;;;;;;783.08;710.25;;;29.70;99.90;;;;;;5032180;28;20501;-68
2024/01/13 06:29:36;;;;;;;808.22;732.47;;;29.60;99.90;;;;;;5032005;28;20030;-66
2024/01/13 06:32:03;;;;;;;824.08;746.45;;;29.70;99.90;;;;;;5033921;28;20100;-65
2024/01/13 06:34:29;;;;;;;798.83;723.78;;;29.70;99.90;;;;;;5033098;28;20033;-67
2024/01/13 06:36:56;;;;;;;816.45;739.28;;;29.70;99.90;;;;;;5033820;28;20386;-66
2024/01/13 06:39:22;;;;;;;811.72;734.95;;;29.70;99.90;;;;;;5032904;28;20022;-66
2024/01/13 06:41:49;;;;;;;805.78;729.80;;;29.70;99.90;;;;;;5033465;28;20025;-68
2024/01/13 06:44:15;;;;;;;852.28;771.78;;;29.80;99.90;;;;;;5032069;28;20475;-66
2024/01/13 06:46:42;;;;;;;820.70;743.65;;;29.80;99.90;;;;;;5027870;28;20048;-67
2024/01/13 06:49:08;;;;;;;833.25;754.35;;;29.80;99.90;;;;;;5022948;28;20242;-66
2024/01/13 06:51:34;;;;;;;833.65;755.50;;;29.80;99.90;;;;;;5023571;28;20037;-67
2024/01/13 06:54:01;;;;;;;1026.22;927.33;;;29.80;99.90;;;;;;5025790;28;21319;-67
2024/01/13 06:56:27;;;;;;;985.40;890.83;;;29.80;99.90;;;;;;5021123;28;20372;-67
2024/01/13 06:58:54;;;;;;;969.30;877.70;;;29.80;99.90;;;;;;5014043;28;20490;-69
2024/01/13 07:01:20;;;;;;;967.67;875.17;;;29.80;99.90;;;;;;5031949;28;20025;-66
2024/01/13 07:03:47;;;;;;;970.92;880.17;;;29.80;99.90;;;;;;5031945;28;20021;-67
2024/01/13 07:06:13;;;;;;;945.70;854.70;;;29.70;99.90;;;;;;5023161;28;20041;-68
2024/01/13 07:08:43;;;;;;;947.90;857.55;;;29.60;99.90;;;;;;5033818;28;20013;-68
2024/01/13 07:11:13;;;;;;;953.30;863.33;;;29.40;99.90;;;;;;5017181;28;20022;-66
2024/01/13 07:13:43;;;;;;;957.10;865.38;;;29.20;99.90;;;;;;5013643;28;20439;-70
2024/01/13 07:16:11;;;;;;;947.70;856.00;;;29.10;99.90;;;;;;5013754;28;20460;-73
2024/01/13 07:18:38;;;;;;;972.35;878.35;;;29.10;99.90;;;;;;5013765;28;20034;-67
2024/01/13 07:21:06;;;;;;;974.58;881.30;;;29.20;99.90;;;;;;5018017;28;20025;-72
2024/01/13 07:23:33;;;;;;;987.60;893.13;;;29.30;99.90;;;;;;5030911;28;20097;-68
2024/01/13 07:26:01;;;;;;;1009.83;912.72;;;29.40;99.90;;;;;;5023427;28;20105;-67
2024/01/13 07:28:28;;;;;;;984.15;889.90;;;29.50;99.90;;;;;;5027899;28;20136;-67
2024/01/13 07:30:54;;;;;;;979.35;885.05;;;29.70;99.90;;;;;;5022162;28;20391;-68
2024/01/13 07:33:21;;;;;;;979.47;885.83;;;29.70;99.90;;;;;;5013472;28;20442;-66
2024/01/13 07:35:47;;;;;;;973.70;880.40;;;29.90;99.90;;;;;;5015395;28;20117;-65
2024/01/13 07:38:14;;;;;;;932.70;843.78;;;29.90;99.90;;;;;;5022148;28;20022;-66
2024/01/13 07:40:40;;;;;;;958.58;866.60;;;30.00;99.90;;;;;;5032880;28;20026;-67
2024/01/13 07:43:07;;;;;;;956.20;865.17;;;30.00;99.90;;;;;;5025853;28;20021;-68
2024/01/13 07:45:34;;;;;;;956.05;864.40;;;30.10;99.90;;;;;;5027467;28;20517;-68
2024/01/13 07:48:01;;;;;;;1007.83;917.25;;;30.00;99.90;;;;;;5035546;28;20029;-67
2024/01/13 07:50:27;;;;;;;1014.55;923.05;;;30.00;99.90;;;;;;5017198;28;20037;-69
2024/01/13 07:52:54;;;;;;;986.38;896.15;;;30.00;99.90;;;;;;5017424;28;20479;-68
2024/01/13 07:55:20;;;;;;;948.42;857.17;;;30.10;99.90;;;;;;5017065;28;20105;-67
2024/01/13 07:57:47;;;;;;;921.50;833.42;;;30.20;99.90;;;;;;5032436;28;20021;-69
2024/01/13 08:00:13;;;;;;;960.97;868.85;;;30.20;99.90;;;;;;5036901;28;20041;-67
2024/01/13 08:02:40;;;;;;;918.85;830.80;;;30.20;99.90;;;;;;5036887;28;20021;-68
2024/01/13 08:05:07;;;;;;;937.67;848.03;;;30.20;99.90;;;;;;5036869;28;20053;-66
2024/01/13 08:07:34;;;;;;;902.35;815.63;;;30.10;99.90;;;;;;5036766;28;20025;-66
2024/01/13 08:10:01;;;;;;;898.30;812.95;;;30.10;99.90;;;;;;5036042;28;20386;-66
2024/01/13 08:12:28;;;;;;;916.38;828.58;;;30.10;99.90;;;;;;5036486;28;20131;-66
2024/01/13 08:14:54;;;;;;;945.90;859.60;;;30.10;99.90;;;;;;5036479;28;20103;-65
2024/01/13 08:17:21;;;;;;;929.20;842.42;;;30.20;99.90;;;;;;5036488;28;20097;-66
2024/01/13 08:19:47;;;;;;;898.85;813.55;;;30.20;99.90;;;;;;5036699;28;20029;-66
2024/01/13 08:22:14;;;;;;;917.38;829.58;;;30.20;99.90;;;;;;5036335;28;20105;-65
2024/01/13 08:24:40;;;;;;;925.53;836.85;;;30.30;99.90;;;;;;5029127;28;20463;-66
2024/01/13 08:27:10;;;;;;;985.50;896.13;;;30.30;99.90;;;;;;5017016;28;20065;-66
2024/01/13 08:29:36;;;;;;;922.75;834.15;;;30.30;99.90;;;;;;5025897;28;20057;-67
2024/01/13 08:32:03;;;;;;;946.35;855.63;;;30.30;99.90;;;;;;5026848;28;20436;-65
2024/01/13 08:34:29;;;;;;;973.85;880.33;;;30.40;99.90;;;;;;5025323;28;20014;-66
2024/01/13 08:36:56;;;;;;;950.10;859.22;;;30.40;99.90;;;;;;5031230;28;20088;-68
2024/01/13 08:39:22;;;;;;;942.10;851.53;;;30.30;99.90;;;;;;5034576;28;20469;-69
2024/01/13 08:41:49;;;;;;;952.45;860.95;;;30.30;99.90;;;;;;5024807;28;20054;-65
2024/01/13 08:44:15;;;;;;;941.83;851.72;;;30.30;99.90;;;;;;5023310;28;20329;-64
2024/01/13 08:46:42;;;;;;;946.30;855.30;;;30.30;99.90;;;;;;5019310;28;20030;-66
2024/01/13 08:49:08;;;;;;;950.90;859.67;;;30.20;99.90;;;;;;5025201;28;20034;-69
2024/01/13 08:51:35;;;;;;;967.58;876.08;;;30.20;99.90;;;;;;5026335;28;20022;-69
2024/01/13 08:54:04;;;;;;;861.85;780.13;;;30.10;99.90;;;;;;5021450;28;20033;-67
2024/01/13 08:56:34;;;;;;;824.67;746.42;;;30.10;99.90;;;;;;5025643;28;20152;-68
2024/01/13 08:59:01;;;;;;;853.42;772.90;;;30.10;99.90;;;;;;5026675;28;20049;-66
2024/01/13 09:01:28;;;;;;;842.38;762.97;;;30.00;99.90;;;;;;5024549;28;20025;-68
2024/01/13 09:03:54;;;;;;;848.05;766.67;;;30.00;99.90;;;;;;5023811;28;20096;-69
2024/01/13 09:06:20;;;;;;;830.20;749.90;;;30.10;99.90;;;;;;5024056;28;20026;-67
2024/01/13 09:08:47;;;;;;;813.25;736.08;;;30.10;99.90;;;;;;5022543;28;20438;-68
2024/01/13 09:11:14;;;;;;;829.83;750.45;;;30.10;99.90;;;;;;5025737;28;20029;-66
2024/01/13 09:13:40;;;;;;;877.00;790.72;;;30.10;99.90;;;;;;5024554;28;20026;-68
2024/01/13 09:16:07;;;;;;;845.70;766.58;;;30.10;99.90;;;;;;5024505;28;20014;-68
2024/01/13 09:18:33;;;;;;;831.95;752.55;;;30.10;99.90;;;;;;5023153;28;20030;-68
2024/01/13 09:21:00;;;;;;;819.60;741.90;;;30.20;99.90;;;;;;5032867;28;20029;-67
2024/01/13 09:23:26;;;;;;;851.35;769.22;;;30.10;99.90;;;;;;5026893;28;20025;-68
2024/01/13 09:25:53;;;;;;;830.25;751.15;;;30.20;99.90;;;;;;5025101;28;20083;-66
2024/01/13 09:28:19;;;;;;;819.88;741.40;;;30.20;99.90;;;;;;5022816;28;20594;-68
2024/01/13 09:30:45;;;;;;;808.88;732.05;;;30.10;99.90;;;;;;5023286;28;20030;-67
2024/01/13 09:33:12;;;;;;;936.00;836.03;;;30.10;99.90;;;;;;5031258;28;20029;-66
2024/01/13 09:35:40;;;;;;;796.05;718.88;;;30.00;99.90;;;;;;5034511;28;20017;-66
2024/01/13 09:38:06;;;;;;;793.85;718.78;;;30.10;99.90;;;;;;5034794;28;20402;-69
2024/01/13 09:40:39;;;;;;;828.92;748.75;;;30.00;99.90;;;;;;5034323;28;20022;-67
2024/01/13 09:43:22;;;;;;;846.92;764.28;;;30.00;99.90;;;;;;5028939;28;20030;-67
2024/01/13 09:45:51;;;;;;;847.00;761.78;;;30.00;99.90;;;;;;5019364;28;20037;-65
2024/01/13 09:48:20;;;;;;;854.03;775.53;;;30.10;99.90;;;;;;5035086;28;20108;-67
2024/01/13 09:50:53;;;;;;;858.65;781.05;;;30.00;99.90;;;;;;5034850;28;20053;-69
2024/01/13 09:53:30;;;;;;;772.58;699.65;;;30.00;99.90;;;;;;5031529;28;20695;-67
2024/01/13 09:56:03;;;;;;;748.70;677.03;;;30.00;99.90;;;;;;5023995;28;20030;-66
2024/01/13 09:58:30;;;;;;;742.58;671.67;;;30.00;99.90;;;;;;5023889;28;20070;-68
2024/01/13 10:00:58;;;;;;;699.15;632.25;;;30.00;99.90;;;;;;5023725;28;20021;-69
2024/01/13 10:03:25;;;;;;;661.97;598.42;;;29.90;99.90;;;;;;5027327;28;20037;-67
2024/01/13 10:05:52;;;;;;;624.90;563.67;;;30.00;99.90;;;;;;5034323;28;20029;-67
2024/01/13 10:08:31;;;;;;;669.75;603.85;;;30.00;99.90;;;;;;5034157;28;20037;-68
2024/01/13 10:10:57;;;;;;;724.80;653.03;;;30.00;99.90;;;;;;5034217;28;20109;-66
2024/01/13 10:13:25;;;;;;;696.47;629.55;;;29.90;99.90;;;;;;5034358;28;20025;-66
2024/01/13 10:15:53;;;;;;;650.65;587.60;;;29.90;99.90;;;;;;5034346;28;20095;-68
2024/01/13 10:18:24;;;;;;;657.55;593.42;;;29.90;99.90;;;;;;5034008;28;20036;-68
2024/01/13 10:20:51;;;;;;;684.73;618.40;;;29.90;99.90;;;;;;5031128;28;20475;-68
2024/01/13 10:23:18;;;;;;;602.10;542.15;;;29.80;99.90;;;;;;5023593;28;20037;-67
2024/01/13 10:25:44;;;;;;;626.03;562.20;;;29.80;99.90;;;;;;5023346;28;20508;-68
2024/01/13 10:28:11;;;;;;;651.28;589.22;;;29.80;99.90;;;;;;5026408;28;20053;-67
2024/01/13 10:30:38;;;;;;;663.80;599.65;;;29.80;99.90;;;;;;5026528;28;20469;-67
2024/01/13 10:33:04;;;;;;;624.85;564.70;;;29.70;99.90;;;;;;5022876;28;20043;-68
2024/01/13 10:35:31;;;;;;;657.20;594.55;;;29.70;99.90;;;;;;5024447;28;20466;-66
2024/01/13 10:37:58;;;;;;;629.33;568.70;;;29.70;99.90;;;;;;5023983;28;20026;-66
2024/01/13 10:40:26;;;;;;;596.33;537.50;;;29.70;99.90;;;;;;5025972;28;20056;-67
2024/01/13 10:42:56;;;;;;;613.97;554.00;;;29.60;99.90;;;;;;5025262;28;20490;-67
2024/01/13 10:45:24;;;;;;;584.67;526.15;;;29.60;99.90;;;;;;5023521;28;21526;-64
2024/01/13 10:47:53;;;;;;;648.63;586.60;;;29.60;99.90;;;;;;5022308;28;20032;-68
2024/01/13 10:50:20;;;;;;;615.75;555.15;;;29.60;99.90;;;;;;5024245;28;20024;-68
2024/01/13 10:53:02;;;;;;;684.83;616.13;;;29.60;99.90;;;;;;5022396;28;20378;-68
2024/01/13 10:55:31;;;;;;;636.67;574.45;;;29.50;99.90;;;;;;5027038;28;20022;-70
2024/01/13 10:58:01;;;;;;;628.08;567.58;;;29.50;99.90;;;;;;5024830;28;20036;-69
2024/01/13 11:00:30;;;;;;;625.15;564.13;;;29.50;99.90;;;;;;5025199;28;20093;-71
2024/01/13 11:02:59;;;;;;;668.53;604.40;;;29.50;99.90;;;;;;5022352;28;20022;-69
2024/01/13 11:05:28;;;;;;;660.33;596.50;;;29.40;99.90;;;;;;5025267;28;20029;-69
2024/01/13 11:07:56;;;;;;;651.50;587.00;;;29.40;99.90;;;;;;5020844;28;20052;-70
2024/01/13 11:10:28;;;;;;;632.55;570.25;;;29.40;99.90;;;;;;5020704;28;20026;-69
2024/01/13 11:12:58;;;;;;;612.40;549.85;;;29.40;99.90;;;;;;5024910;28;20038;-67
2024/01/13 11:15:53;;;;;;;600.80;541.17;;;29.30;99.90;;;;;;5020583;28;20029;-67
2024/01/13 11:18:20;;;;;;;613.78;553.22;;;29.20;99.90;;;;;;5025682;28;20018;-68
2024/01/13 11:21:07;;;;;;;621.80;560.95;;;29.20;99.90;;;;;;5020167;28;20017;-69
2024/01/13 11:23:53;;;;;;;661.10;594.70;;;29.20;99.90;;;;;;5020754;28;20013;-70
2024/01/13 11:26:27;;;;;;;646.30;581.92;;;29.20;99.90;;;;;;5024753;28;20037;-70
2024/01/13 11:28:56;;;;;;;659.00;591.53;;;29.10;99.90;;;;;;5021580;28;20029;-69
2024/01/13 11:31:42;;;;;;;650.17;588.05;;;29.10;99.90;;;;;;5021112;28;20029;-69
2024/01/13 11:34:11;;;;;;;616.80;556.05;;;29.10;99.90;;;;;;5027367;28;20450;-68
2024/01/13 11:36:43;;;;;;;793.08;710.47;;;29.10;99.90;;;;;;5024472;28;20026;-70
2024/01/13 11:39:10;;;;;;;634.92;571.92;;;29.00;99.90;;;;;;5023112;28;20026;-69
2024/01/13 11:41:40;;;;;;;645.13;583.17;;;29.00;99.90;;;;;;5024024;28;20410;-67
2024/01/13 11:44:08;;;;;;;633.67;570.75;;;29.00;99.90;;;;;;5024097;28;20203;-70
2024/01/13 11:46:38;;;;;;;844.35;763.65;;;29.00;99.90;;;;;;5028593;28;20022;-68
2024/01/13 11:49:06;;;;;;;854.40;772.65;;;29.00;99.90;;;;;;5024680;28;20029;-70
2024/01/13 11:52:04;;;;;;;658.88;595.45;;;29.00;99.90;;;;;;5022017;28;20105;-68
2024/01/13 11:54:31;;;;;;;653.03;588.95;;;29.00;99.90;;;;;;5026677;28;20123;-71
2024/01/13 11:56:59;;;;;;;633.80;571.70;;;29.00;99.90;;;;;;5023004;28;20104;-69
2024/01/13 11:59:26;;;;;;;619.20;557.88;;;29.00;99.90;;;;;;5023874;28;20231;-68
2024/01/13 12:01:54;;;;;;;658.90;595.70;;;28.90;99.90;;;;;;5022559;28;20371;-69
2024/01/13 12:04:24;;;;;;;653.60;589.17;;;28.90;99.90;;;;;;5027732;28;20037;-70
2024/01/13 12:06:53;;;;;;;697.00;629.83;;;28.90;99.90;;;;;;5024932;28;20060;-68